Time;durP1;ratioP1;P1;durP2;ratioP2;P2;SDS_P1;SDS_P2;PMS_P1;PMS_P2;Temp;Humidity;BMP_temperature;BMP_pressure;BME280_temperature;BME280_humidity;BME280_pressure;Samples;Min_cycle;Max_cycle;Signal;HPM_P1;HPM_P2
2022/06/16 00:01:36;;;;;;;4.63;3.05;;;;;;;13.43;86.25;102096.59;5005288;28;20033;-74
2022/06/16 00:04:01;;;;;;;3.97;2.97;;;;;;;13.44;86.06;102087.66;5011068;28;20036;-74
2022/06/16 00:06:27;;;;;;;5.10;3.20;;;;;;;13.44;85.52;102086.78;5010021;28;20060;-74
2022/06/16 00:08:52;;;;;;;4.55;3.20;;;;;;;13.44;86.00;102078.81;5008743;28;20568;-74
2022/06/16 00:11:19;;;;;;;5.80;2.63;;;;;;;13.43;85.49;102079.75;5009724;28;20037;-74
2022/06/16 00:13:45;;;;;;;4.80;3.20;;;;;;;13.44;85.96;102076.16;5009580;28;20544;-75
2022/06/16 00:16:12;;;;;;;8.80;3.00;;;;;;;13.42;86.12;102081.53;5005331;28;20569;-74
2022/06/16 00:18:38;;;;;;;7.22;3.70;;;;;;;13.40;86.07;102070.09;4996571;28;20541;-75
2022/06/16 00:21:04;;;;;;;4.95;3.28;;;;;;;13.38;86.63;102069.28;5011522;28;20515;-75
2022/06/16 00:23:30;;;;;;;5.07;2.90;;;;;;;13.37;86.91;102074.66;4991415;28;20037;-75
2022/06/16 00:25:55;;;;;;;5.30;3.40;;;;;;;13.38;87.37;102073.72;5009237;28;20034;-75
2022/06/16 00:28:21;;;;;;;6.88;3.53;;;;;;;13.38;87.82;102071.94;5011152;28;20030;-74
2022/06/16 00:30:46;;;;;;;5.22;3.17;;;;;;;13.40;87.44;102066.56;5008646;28;20033;-74
2022/06/16 00:33:12;;;;;;;3.60;2.67;;;;;;;13.43;87.51;102069.09;5009482;28;20030;-74
2022/06/16 00:35:37;;;;;;;5.05;3.10;;;;;;;13.43;87.36;102067.31;5009676;28;20038;-75
2022/06/16 00:38:03;;;;;;;4.47;2.88;;;;;;;13.41;86.90;102049.69;5008242;28;20577;-74
2022/06/16 00:40:28;;;;;;;5.20;2.92;;;;;;;13.41;87.08;102026.59;5007330;28;20033;-75
2022/06/16 00:42:54;;;;;;;3.88;3.22;;;;;;;13.38;87.30;102018.75;5006625;28;20469;-74
2022/06/16 00:45:41;;;;;;;3.10;2.60;;;;;;;13.35;87.83;102034.81;5007801;28;20165;-75
2022/06/16 00:48:07;;;;;;;3.47;2.53;;;;;;;13.31;87.37;102038.53;5008133;28;20041;-75
2022/06/16 00:50:33;;;;;;;5.60;2.45;;;;;;;13.32;87.50;102045.56;5003993;28;20037;-75
2022/06/16 00:52:58;;;;;;;4.22;2.25;;;;;;;13.33;87.52;102057.09;5010122;28;20711;-75
2022/06/16 00:55:26;;;;;;;3.50;2.70;;;;;;;13.30;87.25;102069.56;5009921;28;20033;-75
2022/06/16 00:57:51;;;;;;;3.03;2.50;;;;;;;13.29;87.70;102070.50;5011779;28;20037;-75
2022/06/16 01:00:36;;;;;;;3.97;2.33;;;;;;;13.29;87.77;102073.16;5009511;28;21886;-75
2022/06/16 01:03:02;;;;;;;3.72;1.90;;;;;;;13.29;87.33;102081.13;5009039;28;20030;-75
2022/06/16 01:05:27;;;;;;;3.70;2.70;;;;;;;13.30;87.28;102087.31;5023978;28;20052;-74
2022/06/16 01:07:54;;;;;;;3.20;2.22;;;;;;;13.32;87.70;102096.09;5021777;28;20037;-75
2022/06/16 01:10:20;;;;;;;3.83;2.10;;;;;;;13.33;86.78;102089.84;5010108;28;20065;-74
2022/06/16 01:15:52;;;;;;;2.53;2.17;;;;;;;13.33;86.60;102076.56;5007270;28;20038;-75
2022/06/16 01:18:26;;;;;;;3.90;2.05;;;;;;;13.33;86.08;102063.25;5007911;28;20030;-75
2022/06/16 01:21:02;;;;;;;2.20;2.00;;;;;;;13.33;85.82;102051.78;5024029;28;20035;-74
2022/06/16 01:24:06;;;;;;;2.20;1.60;;;;;;;13.35;86.17;102044.59;5023259;28;20041;-74
2022/06/16 01:26:53;;;;;;;3.67;1.90;;;;;;;13.36;86.04;102057.84;5009140;28;20164;-75
2022/06/16 01:29:49;;;;;;;2.20;1.60;;;;;;;13.32;85.55;102077.50;5008812;28;20489;-75
2022/06/16 01:32:32;;;;;;;4.55;2.20;;;;;;;13.33;85.82;102078.38;5005859;28;20089;-75
2022/06/16 01:35:12;;;;;;;2.10;1.90;;;;;;;13.34;86.16;102080.09;5023714;28;20033;-75
2022/06/16 01:38:00;;;;;;;3.33;1.90;;;;;;;13.34;85.98;102082.75;4992448;28;20083;-74
2022/06/16 01:40:30;;;;;;;2.95;2.05;;;;;;;13.34;85.58;102083.59;5008391;28;21555;-75
2022/06/16 01:43:26;;;;;;;2.58;1.73;;;;;;;13.34;85.32;102078.28;5008268;28;20037;-75
2022/06/16 01:45:57;;;;;;;4.13;1.98;;;;;;;13.33;85.11;102092.50;5007682;28;20072;-75
2022/06/16 01:48:23;;;;;;;3.40;1.80;;;;;;;13.32;85.02;102104.09;5008435;28;20119;-75
2022/06/16 01:50:53;;;;;;;3.03;1.92;;;;;;;13.31;85.15;102097.03;5023863;28;20033;-75
2022/06/16 01:53:29;;;;;;;3.20;2.05;;;;;;;13.27;85.22;102090.97;4995767;28;20048;-75
2022/06/16 01:56:06;;;;;;;4.57;2.08;;;;;;;13.26;85.11;102089.22;5023292;28;20038;-75
2022/06/16 01:58:34;;;;;;;3.10;2.05;;;;;;;13.23;84.85;102086.66;4989859;28;20489;-75
2022/06/16 02:01:02;;;;;;;3.25;2.28;;;;;;;13.20;85.25;102088.56;5022290;28;20029;-75
2022/06/16 02:03:32;;;;;;;2.17;1.90;;;;;;;13.15;85.60;102089.63;5021299;28;20096;-75
2022/06/16 02:06:01;;;;;;;3.80;2.28;;;;;;;13.14;85.90;102095.00;5003441;28;20698;-75
2022/06/16 02:08:34;;;;;;;2.30;1.95;;;;;;;13.14;86.73;102098.50;5006403;28;20383;-75
2022/06/16 02:11:15;;;;;;;2.13;1.83;;;;;;;13.15;87.03;102096.72;5022891;28;20045;-74
2022/06/16 02:13:59;;;;;;;2.25;1.90;;;;;;;13.15;86.50;102102.94;5005431;28;20053;-75
2022/06/16 02:16:28;;;;;;;3.95;1.90;;;;;;;13.14;85.26;102098.50;5023722;28;20031;-75
2022/06/16 02:18:55;;;;;;;3.67;1.80;;;;;;;13.14;84.81;102098.50;5023475;28;20304;-75
2022/06/16 02:21:34;;;;;;;3.42;2.10;;;;;;;13.15;85.15;102094.06;4992234;28;20132;-75
2022/06/16 02:24:00;;;;;;;2.30;2.05;;;;;;;13.15;84.62;102102.94;4988980;28;20492;-75
2022/06/16 02:26:26;;;;;;;3.65;1.80;;;;;;;13.16;84.74;102109.09;5023515;28;20037;-75
2022/06/16 02:28:54;;;;;;;3.67;2.10;;;;;;;13.15;84.97;102108.25;5010033;28;20038;-75
2022/06/16 02:31:57;;;;;;;2.95;2.20;;;;;;;13.16;84.97;102107.31;5009049;28;20041;-75
2022/06/16 02:34:31;;;;;;;2.03;1.70;;;;;;;13.17;85.33;102113.47;5007938;28;21448;-75
2022/06/16 02:37:23;;;;;;;3.08;1.85;;;;;;;13.13;84.76;102110.06;5006089;28;20195;-75
2022/06/16 02:40:12;;;;;;;1.63;1.52;;;;;;;13.11;85.00;102109.25;4999494;28;20591;-75
2022/06/16 02:42:47;;;;;;;4.78;1.65;;;;;;;13.09;85.15;102112.91;5010415;28;20390;-75
2022/06/16 02:45:16;;;;;;;2.55;1.95;;;;;;;13.07;84.52;102112.09;5026369;28;20030;-75
2022/06/16 02:47:48;;;;;;;2.97;1.80;;;;;;;13.06;84.72;102118.34;5010862;28;20545;-76
2022/06/16 02:50:39;;;;;;;3.65;1.63;;;;;;;13.03;85.09;102119.31;5025729;28;20091;-76
2022/06/16 02:53:12;;;;;;;4.07;1.50;;;;;;;13.00;85.08;102114.09;4996661;28;20090;-75
2022/06/16 02:55:44;;;;;;;3.65;1.80;;;;;;;12.95;84.83;102111.59;5006723;28;20548;-75
2022/06/16 02:58:14;;;;;;;1.80;1.40;;;;;;;12.92;84.30;102111.72;5001434;28;20045;-74
2022/06/16 03:00:42;;;;;;;4.38;1.80;;;;;;;12.92;84.84;102110.84;5009648;28;20108;-75
2022/06/16 03:03:27;;;;;;;2.20;1.80;;;;;;;12.90;85.47;102118.84;5027365;28;20112;-75
2022/06/16 03:05:54;;;;;;;3.65;1.83;;;;;;;12.88;84.92;102124.25;5009587;28;20099;-75
2022/06/16 03:08:24;;;;;;;2.20;1.70;;;;;;;12.88;85.29;102126.03;5010268;28;20107;-75
2022/06/16 03:10:52;;;;;;;6.63;1.90;;;;;;;12.88;85.50;102132.22;5014738;28;20067;-75
2022/06/16 03:13:18;;;;;;;1.80;1.67;;;;;;;12.86;85.99;102128.72;5012763;28;20072;-75
2022/06/16 03:15:43;;;;;;;2.63;1.98;;;;;;;12.87;86.45;102141.09;5010169;28;20116;-75
2022/06/16 03:18:09;;;;;;;4.85;1.80;;;;;;;12.87;86.33;102138.44;5012846;28;20158;-75
2022/06/16 03:20:34;;;;;;;3.17;1.80;;;;;;;12.88;86.73;102139.31;5007908;28;20070;-75
2022/06/16 03:23:00;;;;;;;3.97;1.80;;;;;;;12.89;87.29;102133.06;5009206;28;20029;-75
2022/06/16 03:25:25;;;;;;;2.42;2.03;;;;;;;12.88;87.35;102129.56;4993317;28;20034;-74
2022/06/16 03:27:51;;;;;;;2.63;1.80;;;;;;;12.88;87.94;102129.56;5025634;28;20038;-74
2022/06/16 03:30:16;;;;;;;3.20;1.92;;;;;;;12.88;88.11;102120.72;4991803;28;20116;-74
2022/06/16 03:32:42;;;;;;;2.50;2.17;;;;;;;12.88;88.51;102134.88;5009665;28;20143;-74
2022/06/16 03:35:08;;;;;;;4.43;2.15;;;;;;;12.88;88.44;102134.88;5010200;28;20045;-74
2022/06/16 03:37:33;;;;;;;3.47;2.00;;;;;;;12.87;88.51;102143.75;5010783;28;20587;-73
2022/06/16 03:39:59;;;;;;;3.67;2.28;;;;;;;12.87;88.52;102141.09;5008201;28;20029;-73
2022/06/16 03:42:25;;;;;;;4.38;2.33;;;;;;;12.87;88.95;102143.75;5008955;28;20061;-75
2022/06/16 03:44:51;;;;;;;3.20;2.40;;;;;;;12.88;88.93;102141.97;5009058;28;20190;-73
2022/06/16 03:47:17;;;;;;;3.55;2.13;;;;;;;12.89;89.38;102144.59;5026506;28;20338;-76
2022/06/16 03:49:43;;;;;;;3.63;2.47;;;;;;;12.93;89.78;102136.50;4995312;28;20037;-75
2022/06/16 03:52:09;;;;;;;4.47;2.75;;;;;;;12.92;89.60;102130.31;5007722;28;20037;-75
2022/06/16 03:54:35;;;;;;;4.32;2.50;;;;;;;12.95;90.50;102129.31;5010612;28;20099;-73
2022/06/16 03:57:00;;;;;;;5.07;2.47;;;;;;;12.98;90.79;102139.88;5025544;28;20415;-75
2022/06/16 03:59:26;;;;;;;3.33;2.28;;;;;;;13.00;90.63;102146.00;5025346;28;20034;-75
2022/06/16 04:01:52;;;;;;;4.47;2.67;;;;;;;13.03;91.00;102143.25;5007505;28;20022;-77
2022/06/16 04:04:17;;;;;;;4.18;2.70;;;;;;;13.04;90.88;102148.47;5009115;28;20500;-74
2022/06/16 04:06:43;;;;;;;3.60;2.40;;;;;;;13.04;90.26;102152.94;5005862;28;20535;-74
2022/06/16 04:09:09;;;;;;;3.35;2.58;;;;;;;13.04;90.26;102153.78;5024765;28;20491;-75
2022/06/16 04:11:34;;;;;;;4.70;2.50;;;;;;;13.07;90.31;102152.81;5025287;28;20053;-75
2022/06/16 04:14:08;;;;;;;3.38;2.25;;;;;;;13.08;90.32;102143.91;5023137;28;20029;-75
2022/06/16 04:16:39;;;;;;;3.53;2.53;;;;;;;13.09;89.44;102148.34;5006503;28;20038;-75
2022/06/16 04:19:05;;;;;;;2.58;1.90;;;;;;;13.11;89.96;102149.16;5011499;28;20132;-74
2022/06/16 04:21:31;;;;;;;3.60;2.15;;;;;;;13.16;90.37;102152.53;5010022;28;20084;-75
2022/06/16 04:23:57;;;;;;;2.90;2.38;;;;;;;13.19;90.46;102162.19;5009813;28;20033;-75
2022/06/16 04:26:23;;;;;;;3.20;2.15;;;;;;;13.22;90.16;102171.81;5010078;28;20037;-75
2022/06/16 04:28:49;;;;;;;2.78;2.10;;;;;;;13.24;90.46;102184.13;5010686;28;20143;-74
2022/06/16 04:31:14;;;;;;;6.05;2.75;;;;;;;13.26;90.79;102186.75;5008110;28;20061;-75
2022/06/16 04:33:40;;;;;;;5.40;2.70;;;;;;;13.27;90.52;102200.00;5008699;28;20039;-74
2022/06/16 04:36:06;;;;;;;4.00;2.80;;;;;;;13.27;90.96;102197.34;5010549;28;20056;-74
2022/06/16 04:38:31;;;;;;;4.82;2.55;;;;;;;13.28;91.02;102199.06;5009778;28;20036;-73
2022/06/16 04:40:58;;;;;;;5.85;2.58;;;;;;;13.28;91.21;102203.50;5008356;28;20084;-73
2022/06/16 04:43:25;;;;;;;5.47;2.90;;;;;;;13.30;90.65;102214.97;5009242;28;20042;-73
2022/06/16 04:45:50;;;;;;;3.28;2.80;;;;;;;13.32;90.45;102213.13;5006070;28;20044;-76
2022/06/16 04:48:16;;;;;;;5.57;2.97;;;;;;;13.34;90.81;102208.63;5007499;28;20022;-75
2022/06/16 04:50:42;;;;;;;5.22;3.10;;;;;;;13.32;90.82;102207.81;5007989;28;20037;-75
2022/06/16 04:53:07;;;;;;;6.28;3.60;;;;;;;13.33;90.69;102206.03;5009743;28;20040;-74
2022/06/16 04:55:34;;;;;;;4.88;3.45;;;;;;;13.34;91.30;102207.75;5007024;28;20389;-74
2022/06/16 04:58:04;;;;;;;6.03;3.38;;;;;;;13.35;91.10;102207.69;4992914;28;20039;-74
2022/06/16 05:00:30;;;;;;;4.88;3.22;;;;;;;13.37;91.19;102207.63;4991151;28;20037;-74
2022/06/16 05:02:56;;;;;;;5.20;3.50;;;;;;;13.38;91.26;102204.06;5022235;28;20815;-75
2022/06/16 05:05:22;;;;;;;3.63;2.97;;;;;;;13.43;91.54;102208.31;4992804;28;20483;-75
2022/06/16 05:07:48;;;;;;;5.40;3.50;;;;;;;13.50;91.08;102203.66;5006322;28;20152;-75
2022/06/16 05:10:14;;;;;;;8.88;3.92;;;;;;;13.53;90.97;102208.88;5009867;28;20053;-76
2022/06/16 05:12:39;;;;;;;5.53;3.42;;;;;;;13.61;91.50;102219.22;4978711;28;20033;-75
2022/06/16 05:15:06;;;;;;;6.22;3.95;;;;;;;13.71;91.59;102230.41;5007888;28;20030;-75
2022/06/16 05:17:31;;;;;;;4.82;4.00;;;;;;;13.83;91.26;102232.63;5021258;28;20033;-75
2022/06/16 05:19:57;;;;;;;5.53;3.25;;;;;;;13.96;90.97;102233.00;5009055;28;20068;-75
2022/06/16 05:22:23;;;;;;;4.28;2.85;;;;;;;14.13;91.74;102234.19;5008154;28;20033;-75
2022/06/16 05:24:49;;;;;;;5.00;3.00;;;;;;;14.26;90.29;102231.91;5008235;28;20036;-75
2022/06/16 05:27:15;;;;;;;4.85;3.33;;;;;;;14.41;89.90;102233.09;5014216;28;20042;-75
2022/06/16 05:29:41;;;;;;;3.50;2.90;;;;;;;14.61;89.71;102234.94;5011045;28;20064;-75
2022/06/16 05:32:09;;;;;;;4.60;2.88;;;;;;;14.78;88.77;102236.09;5011670;28;20034;-75
2022/06/16 05:34:37;;;;;;;5.70;3.05;;;;;;;14.89;88.37;102233.00;5010995;28;20037;-76
2022/06/16 05:37:03;;;;;;;2.72;2.30;;;;;;;15.03;87.34;102229.75;5007376;28;20585;-73
2022/06/16 05:39:29;;;;;;;4.45;2.80;;;;;;;15.15;87.19;102236.38;5010719;28;20048;-74
2022/06/16 05:41:55;;;;;;;3.78;2.78;;;;;;;15.23;86.18;102231.56;5005613;28;20477;-74
2022/06/16 05:44:20;;;;;;;2.40;1.70;;;;;;;15.38;85.84;102250.50;5009173;28;20040;-74
2022/06/16 05:46:46;;;;;;;3.67;1.67;;;;;;;15.56;84.70;102244.38;5010131;28;20033;-74
2022/06/16 05:49:13;;;;;;;2.10;1.75;;;;;;;15.72;83.97;102246.34;5009864;28;20091;-74
2022/06/16 05:51:39;;;;;;;2.75;2.03;;;;;;;15.88;83.72;102251.84;5024620;28;20037;-75
2022/06/16 05:54:07;;;;;;;2.85;1.77;;;;;;;16.10;83.61;102265.13;5010612;28;20057;-74
2022/06/16 05:56:33;;;;;;;3.03;1.90;;;;;;;16.24;82.60;102269.81;5009028;28;20048;-75
2022/06/16 05:58:58;;;;;;;3.75;1.70;;;;;;;16.32;81.94;102269.47;5010120;28;20025;-75
2022/06/16 06:01:24;;;;;;;3.50;1.90;;;;;;;16.47;81.97;102259.84;5010193;28;20029;-75
2022/06/16 06:03:49;;;;;;;5.65;2.10;;;;;;;16.64;81.76;102258.16;5008936;28;20042;-75
2022/06/16 06:06:15;;;;;;;5.55;2.00;;;;;;;16.75;80.24;102254.94;5009557;28;20046;-75
2022/06/16 06:17:13;;;;;;;2.97;1.88;;;;;;;17.58;79.99;102249.00;5010571;28;20045;-75
2022/06/16 06:19:39;;;;;;;3.95;1.67;;;;;;;17.74;79.32;102244.56;5017244;28;20043;-75
2022/06/16 06:22:13;;;;;;;1.75;1.25;;;;;;;17.90;78.49;102251.78;5012533;28;20037;-75
2022/06/16 06:24:46;;;;;;;2.70;1.40;;;;;;;17.91;77.67;102250.81;4996422;28;20030;-75
2022/06/16 06:27:20;;;;;;;2.65;1.60;;;;;;;18.03;77.90;102252.84;4994481;28;20033;-78
2022/06/16 06:29:48;;;;;;;2.80;1.58;;;;;;;18.18;77.24;102261.00;5009791;28;20038;-82
2022/06/16 06:32:14;;;;;;;5.05;1.73;;;;;;;18.32;76.76;102263.78;5009812;28;20033;-75
2022/06/16 06:34:40;;;;;;;1.95;1.40;;;;;;;18.50;76.34;102268.19;5020422;28;20084;-76
2022/06/16 06:37:06;;;;;;;2.25;1.30;;;;;;;18.62;75.58;102267.50;5012466;28;20596;-76
2022/06/16 06:39:32;;;;;;;2.70;1.50;;;;;;;18.69;75.41;102274.22;5011804;28;20034;-75
2022/06/16 06:41:57;;;;;;;2.17;1.60;;;;;;;18.81;75.17;102263.75;5027612;28;20396;-75
2022/06/16 06:44:23;;;;;;;2.80;1.33;;;;;;;18.89;74.01;102264.16;5011139;28;20033;-76
2022/06/16 06:46:48;;;;;;;2.53;1.90;;;;;;;19.02;73.96;102256.31;5009992;28;20476;-75
2022/06/16 06:49:14;;;;;;;1.70;1.40;;;;;;;19.24;73.92;102255.03;5013003;28;20123;-75
2022/06/16 06:51:40;;;;;;;2.30;1.23;;;;;;;19.48;73.26;102259.84;5024303;28;21512;-80
2022/06/16 06:54:05;;;;;;;1.60;1.00;;;;;;;19.62;71.92;102259.00;5013470;28;20664;-79
2022/06/16 06:56:32;;;;;;;1.52;0.98;;;;;;;19.72;71.14;102252.09;4994829;28;20364;-81
2022/06/16 06:59:02;;;;;;;1.45;0.88;;;;;;;19.82;69.96;102249.69;5012326;28;20029;-81
2022/06/16 07:01:28;;;;;;;1.98;0.85;;;;;;;19.91;69.01;102250.94;5013702;28;20186;-81
2022/06/16 07:03:54;;;;;;;3.47;1.20;;;;;;;19.92;69.12;102258.03;5011411;28;20029;-85
2022/06/16 07:06:20;;;;;;;2.50;1.48;;;;;;;19.92;68.90;102260.72;5025632;28;20049;-84
2022/06/16 07:08:46;;;;;;;2.97;1.05;;;;;;;19.94;69.79;102266.88;5015994;28;20095;-84
2022/06/16 07:11:12;;;;;;;1.50;1.20;;;;;;;19.98;69.33;102270.28;5028913;28;20588;-85
2022/06/16 07:13:38;;;;;;;1.48;1.20;;;;;;;20.15;68.61;102279.97;5014397;28;20055;-87
2022/06/16 07:16:04;;;;;;;1.63;1.00;;;;;;;20.03;68.60;102279.75;5011770;28;20029;-87
2022/06/16 07:18:30;;;;;;;2.00;1.08;;;;;;;20.14;67.97;102275.50;5015512;28;20125;-85
2022/06/16 07:20:55;;;;;;;2.25;0.98;;;;;;;20.26;67.62;102272.03;5012945;28;20041;-85
2022/06/16 07:23:21;;;;;;;1.52;1.10;;;;;;;20.28;66.68;102272.84;5015300;28;20048;-86
2022/06/16 07:25:48;;;;;;;2.45;0.90;;;;;;;20.32;65.91;102281.56;4998248;28;20040;-85
2022/06/16 07:28:14;;;;;;;1.55;0.88;;;;;;;20.33;64.52;102277.91;5027985;28;20041;-85
2022/06/16 07:30:41;;;;;;;1.38;0.80;;;;;;;20.36;64.34;102264.25;5011342;28;20119;-86
2022/06/16 07:33:06;;;;;;;1.90;0.70;;;;;;;20.45;64.15;102271.75;5015296;28;20064;-86
2022/06/16 07:35:32;;;;;;;1.50;0.93;;;;;;;20.51;63.51;102269.59;5002457;28;20114;-86
2022/06/16 07:37:57;;;;;;;2.05;0.90;;;;;;;20.68;63.47;102269.34;5016143;28;20122;-86
2022/06/16 07:40:24;;;;;;;1.90;1.00;;;;;;;20.82;62.76;102262.19;5013297;28;20393;-87
2022/06/16 07:42:54;;;;;;;1.00;0.90;;;;;;;20.88;61.59;102267.19;5028499;28;21760;-87
2022/06/16 07:45:20;;;;;;;1.52;0.90;;;;;;;20.82;61.38;102272.94;5009906;28;20069;-86
2022/06/16 07:47:46;;;;;;;1.13;1.00;;;;;;;20.76;60.88;102267.00;5014553;28;20545;-86
2022/06/16 07:50:12;;;;;;;0.80;0.80;;;;;;;20.87;60.72;102265.47;4997484;28;20456;-87
2022/06/16 07:52:38;;;;;;;2.17;1.10;;;;;;;20.98;60.68;102268.28;5011529;28;20103;-87
2022/06/16 07:55:05;;;;;;;2.05;0.90;;;;;;;21.05;60.34;102266.06;5003771;28;20500;-87
2022/06/16 07:57:34;;;;;;;1.42;1.08;;;;;;;21.11;59.76;102270.16;5044302;28;20029;-87
2022/06/16 08:00:00;;;;;;;1.65;1.00;;;;;;;21.20;59.29;102274.06;5041712;28;20025;-86
2022/06/16 08:02:27;;;;;;;2.30;1.33;;;;;;;21.33;58.91;102272.25;5018459;28;21198;-87
2022/06/16 08:04:53;;;;;;;1.75;1.13;;;;;;;21.44;58.55;102277.75;5015253;28;20022;-89
2022/06/16 08:07:18;;;;;;;1.52;0.98;;;;;;;21.44;56.06;102285.84;5001791;28;20117;-90
2022/06/16 08:09:44;;;;;;;2.05;1.20;;;;;;;21.39;57.19;102289.78;5013014;28;20036;-88
2022/06/16 08:12:10;;;;;;;2.13;1.20;;;;;;;21.48;57.97;102281.09;5014854;28;20139;-89
2022/06/16 08:14:47;;;;;;;4.07;1.30;;;;;;;21.55;58.02;102287.78;5001877;28;20028;-90
2022/06/16 08:17:24;;;;;;;1.25;1.10;;;;;;;21.64;56.17;102285.41;4999558;28;20111;-88
2022/06/16 08:19:50;;;;;;;2.53;1.45;;;;;;;21.76;57.21;102295.34;5030700;28;20044;-87
2022/06/16 08:22:16;;;;;;;1.23;1.00;;;;;;;21.68;56.95;102295.00;5028626;28;20788;-87
2022/06/16 08:24:42;;;;;;;1.80;1.17;;;;;;;21.52;57.36;102297.91;5014843;28;20049;-85
2022/06/16 08:27:08;;;;;;;1.40;1.30;;;;;;;21.42;57.17;102292.28;5013564;28;20148;-86
2022/06/16 08:29:35;;;;;;;1.85;1.40;;;;;;;21.52;56.90;102298.75;5013954;28;20091;-86
2022/06/16 08:32:00;;;;;;;2.80;1.27;;;;;;;21.49;56.96;102295.41;5028225;28;20057;-88
2022/06/16 08:34:26;;;;;;;1.95;1.27;;;;;;;21.50;57.21;102303.38;5012851;28;20164;-88
2022/06/16 08:36:55;;;;;;;1.38;1.27;;;;;;;21.66;57.29;102288.84;5014389;28;20044;-86
2022/06/16 08:39:20;;;;;;;1.52;1.05;;;;;;;21.80;57.18;102296.84;4998402;28;21512;-85
2022/06/16 08:41:50;;;;;;;2.47;1.35;;;;;;;21.95;56.62;102297.59;5010210;28;20041;-86
2022/06/16 08:44:29;;;;;;;1.88;1.40;;;;;;;22.02;56.70;102300.72;5019753;28;20049;-86
2022/06/16 08:47:20;;;;;;;2.03;1.30;;;;;;;22.04;54.35;102290.69;4991532;28;21480;-86
2022/06/16 08:50:24;;;;;;;2.17;1.40;;;;;;;22.03;56.92;102288.97;5029179;28;20067;-86
2022/06/16 08:53:06;;;;;;;2.17;1.40;;;;;;;22.11;57.12;102297.38;4978844;28;20389;-86
2022/06/16 08:55:40;;;;;;;1.70;1.40;;;;;;;22.23;57.48;102294.75;5011902;28;20053;-88
2022/06/16 08:58:23;;;;;;;2.15;1.55;;;;;;;22.27;54.76;102298.94;5027949;28;20037;-87
2022/06/16 09:00:54;;;;;;;2.08;1.60;;;;;;;22.24;56.88;102297.31;5013186;28;20132;-86
2022/06/16 09:03:47;;;;;;;3.28;1.70;;;;;;;22.35;55.72;102301.94;5016231;28;20028;-88
2022/06/16 09:06:40;;;;;;;3.30;1.73;;;;;;;22.52;55.47;102308.84;5013022;28;20788;-85
2022/06/16 09:10:14;;;;;;;3.10;1.85;;;;;;;22.43;56.46;102306.78;5009432;28;20034;-87
2022/06/16 09:12:31;;;;;;;1.83;1.52;;;;;;;22.38;55.08;102301.72;5012669;28;20040;-86
2022/06/16 09:15:39;;;;;;;1.80;1.70;;;;;;;22.58;55.13;102309.34;5026545;28;20029;-87
2022/06/16 09:18:17;;;;;;;3.28;1.90;;;;;;;22.55;54.81;102302.34;5012436;28;20095;-88
2022/06/16 09:20:50;;;;;;;3.60;1.98;;;;;;;22.51;56.06;102301.69;4993654;28;20124;-86
2022/06/16 09:24:03;;;;;;;2.05;1.73;;;;;;;22.72;54.25;102302.94;5008850;28;20547;-85
2022/06/16 09:26:47;;;;;;;2.42;1.90;;;;;;;22.82;53.84;102306.66;4992543;28;20037;-86
2022/06/16 09:29:28;;;;;;;2.20;1.77;;;;;;;22.77;53.29;102317.81;5011373;28;20077;-87
2022/06/16 09:32:13;;;;;;;3.78;2.33;;;;;;;22.77;53.01;102306.16;5026666;28;20473;-87
2022/06/16 09:34:59;;;;;;;3.00;2.20;;;;;;;22.73;54.47;102312.75;5013064;28;20465;-76
2022/06/16 09:37:31;;;;;;;2.53;2.13;;;;;;;22.69;53.57;102312.13;5002829;28;20047;-77
2022/06/16 09:40:02;;;;;;;3.75;2.30;;;;;;;22.73;53.21;102310.06;5009507;28;20935;-77
2022/06/16 09:42:35;;;;;;;3.25;2.60;;;;;;;22.81;51.29;102304.09;5026096;28;20726;-76
2022/06/16 09:45:04;;;;;;;4.45;2.40;;;;;;;22.81;51.70;102315.72;4995805;28;20034;-81
2022/06/16 09:47:34;;;;;;;2.50;2.28;;;;;;;22.88;51.40;102321.56;5009182;28;20033;-80
2022/06/16 09:50:07;;;;;;;2.53;2.33;;;;;;;22.78;50.93;102329.47;5013364;28;20045;-81
2022/06/16 09:52:35;;;;;;;3.20;2.20;;;;;;;22.77;51.58;102333.16;5012392;28;20030;-81
2022/06/16 09:55:09;;;;;;;4.28;2.53;;;;;;;22.85;50.83;102335.25;5014743;28;20120;-81
2022/06/16 09:57:45;;;;;;;4.00;2.80;;;;;;;22.80;50.50;102338.31;5031791;28;20550;-81
2022/06/16 10:00:14;;;;;;;4.25;3.17;;;;;;;22.77;50.59;102335.84;5029349;28;20037;-82
2022/06/16 10:02:52;;;;;;;4.25;2.50;;;;;;;22.70;51.29;102327.34;5031508;28;20125;-81
2022/06/16 10:05:31;;;;;;;3.15;2.65;;;;;;;22.81;50.69;102334.63;5016920;28;20046;-83
2022/06/16 10:08:02;;;;;;;2.53;2.33;;;;;;;22.79;51.15;102334.72;5032554;28;20036;-81
2022/06/16 10:10:37;;;;;;;3.25;2.67;;;;;;;22.90;50.92;102338.50;5013852;28;20049;-84
2022/06/16 10:13:29;;;;;;;4.45;2.70;;;;;;;22.90;49.82;102339.38;5009829;28;20038;-82
2022/06/16 10:16:02;;;;;;;3.65;2.47;;;;;;;22.72;50.37;102340.72;5015766;28;20511;-82
2022/06/16 10:18:28;;;;;;;3.78;2.92;;;;;;;22.65;51.37;102341.19;5030600;28;20111;-80
2022/06/16 10:20:54;;;;;;;4.93;2.80;;;;;;;22.72;51.03;102340.72;5015574;28;20034;-81
2022/06/16 10:23:23;;;;;;;2.45;2.25;;;;;;;22.67;51.23;102337.50;5015510;28;20630;-81
2022/06/16 10:25:54;;;;;;;3.95;2.50;;;;;;;22.76;50.77;102340.38;5016988;28;20037;-80
2022/06/16 10:28:28;;;;;;;3.90;2.90;;;;;;;22.71;51.07;102344.41;5013547;28;20042;-81
2022/06/16 10:30:53;;;;;;;3.40;2.35;;;;;;;22.67;51.35;102351.00;5015127;28;20395;-81
2022/06/16 10:33:25;;;;;;;4.82;2.83;;;;;;;22.78;50.10;102351.91;5029897;28;20043;-82
2022/06/16 10:36:17;;;;;;;3.88;2.90;;;;;;;22.87;48.81;102344.13;5028735;28;20041;-84
2022/06/16 10:38:46;;;;;;;5.20;2.97;;;;;;;22.89;49.44;102347.56;5016773;28;20191;-83
2022/06/16 10:41:40;;;;;;;3.88;2.85;;;;;;;22.97;49.66;102349.66;5031029;28;20038;-84
2022/06/16 10:44:06;;;;;;;;;;;;;;;22.97;48.19;102352.38;5027171;28;20098;-77
2022/06/16 10:46:36;;;;;;;3.03;2.75;;;;;;;23.00;49.44;102346.75;5026471;28;19927;-81
2022/06/16 10:49:15;;;;;;;3.67;2.80;;;;;;;22.96;49.08;102350.66;5007528;28;20568;-80
2022/06/16 10:51:53;;;;;;;3.28;2.70;;;;;;;22.96;50.16;102354.22;5011073;28;20511;-77
2022/06/16 10:54:30;;;;;;;5.22;3.17;;;;;;;22.97;49.19;102355.06;5018982;28;20036;-76
2022/06/16 10:57:19;;;;;;;6.03;2.63;;;;;;;22.99;49.01;102355.84;5016305;28;20038;-77
2022/06/16 10:59:51;;;;;;;2.97;2.40;;;;;;;22.96;50.15;102350.66;4998379;28;20503;-78
2022/06/16 11:02:25;;;;;;;4.07;2.92;;;;;;;23.14;50.03;102353.81;4996525;28;20037;-77
2022/06/16 11:05:02;;;;;;;4.90;2.58;;;;;;;23.21;49.45;102346.97;5028295;28;20025;-77
2022/06/16 11:07:35;;;;;;;2.65;2.00;;;;;;;23.21;48.74;102349.69;5014689;28;20055;-78
2022/06/16 11:10:05;;;;;;;4.75;2.70;;;;;;;23.25;49.76;102350.31;5015312;28;20037;-77
2022/06/16 11:12:31;;;;;;;3.42;2.42;;;;;;;23.25;50.14;102350.31;5013171;28;20052;-77
2022/06/16 11:15:03;;;;;;;3.10;2.80;;;;;;;23.17;48.15;102345.47;5013476;28;20063;-77
2022/06/16 11:17:42;;;;;;;4.63;2.78;;;;;;;22.91;48.83;102357.28;4997100;28;20396;-77
2022/06/16 11:20:27;;;;;;;3.20;2.20;;;;;;;22.87;49.53;102361.16;5012186;28;20387;-78
2022/06/16 11:22:53;;;;;;;5.72;2.28;;;;;;;23.04;49.48;102356.38;5013123;28;20037;-77
2022/06/16 11:25:31;;;;;;;2.17;1.98;;;;;;;23.16;49.07;102360.81;5028151;28;20030;-78
2022/06/16 11:28:00;;;;;;;3.20;2.53;;;;;;;23.27;49.65;102373.50;5013119;28;20677;-77
2022/06/16 11:30:43;;;;;;;3.03;2.17;;;;;;;23.23;48.70;102373.84;5027523;28;20029;-78
2022/06/16 11:37:05;;;;;;;3.17;2.63;;;;;;;23.35;47.45;102377.53;5018770;28;20025;-78
2022/06/16 11:39:40;;;;;;;2.63;1.95;;;;;;;23.51;47.08;102388.88;5027710;28;20033;-77
2022/06/16 11:42:44;;;;;;;3.20;1.90;;;;;;;23.51;47.65;102378.06;5042657;28;20049;-77
2022/06/16 11:45:47;;;;;;;3.42;2.05;;;;;;;23.65;47.68;102376.13;5025625;28;20033;-78
2022/06/16 11:48:34;;;;;;;;;;;;;;;23.76;46.82;102376.16;5022221;28;20037;-78
2022/06/16 11:51:22;;;;;;;3.72;2.22;;;;;;;23.78;47.57;102392.25;5020202;28;19924;-78
2022/06/16 11:54:15;;;;;;;2.85;2.28;;;;;;;23.64;46.23;102383.34;5020685;28;20059;-78
2022/06/16 11:57:02;;;;;;;2.08;1.85;;;;;;;23.38;46.15;102378.16;5022870;28;20070;-77
2022/06/16 11:59:36;;;;;;;3.40;2.10;;;;;;;23.37;47.38;102372.84;5018216;28;20438;-78
2022/06/16 12:02:21;;;;;;;2.67;1.95;;;;;;;23.33;48.16;102378.47;5014618;28;20120;-78